| time (UTC) | temp C | wind direction | speed KPH | gust KPH | rain 1hr cm | rain 24hr cm | rain mn cm | humidity % | barometer mb |
| 20260906181403 | 28 | 212 | 8.0 | 12.9 | 0.00 | 0.00 | 0.00 | 77 | 1016.3 |
| 20260906180858 | 28 | 167 | 12.9 | 14.5 | 0.00 | 0.00 | 0.00 | 76 | 1016.2 |
| 20260906180353 | 28 | 132 | 6.4 | 11.3 | 0.00 | 0.00 | 0.00 | 77 | 1016.2 |
| 20260906175850 | 28 | 148 | 6.4 | 16.1 | 0.00 | 0.00 | 0.00 | 79 | 1016.2 |
| 20260906175346 | 28 | 144 | 14.5 | 16.1 | 0.00 | 0.00 | 0.00 | 78 | 1016.0 |
| 20260906174845 | 28 | 113 | 8.0 | 16.1 | 0.00 | 0.00 | 0.00 | 78 | 1016.1 |
| 20260906174344 | 28 | 132 | 9.7 | 11.3 | 0.00 | 0.00 | 0.00 | 80 | 1016.2 |
| 20260906173839 | 27 | 123 | 8.0 | 11.3 | 0.00 | 0.00 | 0.00 | 81 | 1016.2 |
| 20260906173335 | 27 | 135 | 4.8 | 9.7 | 0.00 | 0.00 | 0.00 | 84 | 1016.5 |
| 20260906172834 | 27 | 109 | 1.6 | 4.8 | 0.00 | 0.00 | 0.00 | 85 | 1016.5 |
| 20260906172330 | 27 | 138 | 4.8 | 6.4 | 0.00 | 0.00 | 0.00 | 85 | 1016.8 |
| 20260906171825 | 27 | 134 | 6.4 | 4.8 | 0.00 | 0.00 | 0.00 | 84 | 1016.7 |
| 20260906171320 | 27 | 191 | 1.6 | 4.8 | 0.00 | 0.00 | 0.00 | 85 | 1016.9 |
| 20260906170815 | 27 | 150 | 3.2 | 6.4 | 0.00 | 0.00 | 0.00 | 85 | 1017.1 |
| 20260906170311 | 27 | 198 | 4.8 | 6.4 | 0.00 | 0.00 | 0.00 | 85 | 1017.0 |
| 20260906165807 | 27 | 195 | 4.8 | 9.7 | 0.00 | 0.00 | 0.00 | 85 | 1017.1 |
| 20260906165306 | 27 | 195 | 6.4 | 6.4 | 0.00 | 0.00 | 0.00 | 85 | 1017.0 |
| 20260906164801 | 27 | 179 | 8.0 | 9.7 | 0.00 | 0.00 | 0.00 | 84 | 1016.7 |
| 20260906164256 | 27 | 188 | 6.4 | 9.7 | 0.00 | 0.00 | 0.00 | 84 | 1016.8 |
| 20260906163752 | 27 | 196 | 4.8 | 9.7 | 0.00 | 0.00 | 0.00 | 84 | 1017.2 |
| 20260906163248 | 27 | 192 | 3.2 | 3.2 | 0.00 | 0.00 | 0.00 | 84 | 1017.3 |
| 20260906162745 | 27 | 178 | 4.8 | 6.4 | 0.00 | 0.00 | 0.00 | 85 | 1017.4 |
| 20260906162239 | 27 | 159 | 3.2 | 6.4 | 0.00 | 0.00 | 0.00 | 85 | 1017.2 |
| 20260906161739 | 26 | 177 | 4.8 | 6.4 | 0.00 | 0.00 | 0.00 | 85 | 1017.3 |
| 20260906161239 | 26 | 156 | 3.2 | 4.8 | 0.00 | 0.00 | 0.00 | 86 | 1017.2 |
| 20260906160738 | 26 | 176 | 1.6 | 4.8 | 0.00 | 0.00 | 0.00 | 85 | 1017.4 |
| 20260906160237 | 26 | 235 | 6.4 | 9.7 | 0.00 | 0.00 | 0.00 | 86 | 1017.5 |
| 20260906155735 | 26 | 213 | 6.4 | 12.9 | 0.00 | 0.00 | 0.00 | 86 | 1017.2 |
| 20260906155230 | 27 | 204 | 14.5 | 16.1 | 0.00 | 0.00 | 0.00 | 86 | 1017.7 |
| 20260906154726 | 27 | 188 | 9.7 | 12.9 | 0.00 | 0.00 | 0.00 | 85 | 1017.2 |
| 20260906154221 | 26 | 173 | 4.8 | 6.4 | 0.00 | 0.00 | 0.00 | 87 | 1017.0 |
| 20260906153719 | 26 | 164 | 9.7 | 11.3 | 0.00 | 0.00 | 0.00 | 86 | 1016.9 |
| 20260906153214 | 26 | 143 | 6.4 | 6.4 | 0.00 | 0.00 | 0.00 | 87 | 1016.8 |
| 20260906152709 | 26 | 159 | 4.8 | 9.7 | 0.00 | 0.00 | 0.00 | 87 | 1017.1 |
| 20260906152209 | 26 | 157 | 8.0 | 9.7 | 0.00 | 0.00 | 0.00 | 86 | 1017.2 |
| 20260906151703 | 26 | 143 | 6.4 | 9.7 | 0.00 | 0.00 | 0.00 | 87 | 1016.9 |
| 20260906151159 | 26 | 142 | 11.3 | 14.5 | 0.00 | 0.00 | 0.00 | 86 | 1016.6 |
| 20260906150654 | 26 | 163 | 9.7 | 11.3 | 0.00 | 0.00 | 0.00 | 86 | 1016.7 |
| 20260906150149 | 26 | 117 | 6.4 | 12.9 | 0.00 | 0.00 | 0.00 | 87 | 1016.6 |
| 20260906145649 | 26 | 135 | 11.3 | 12.9 | 0.00 | 0.00 | 0.00 | 86 | 1016.9 |
| 20260906145149 | 26 | 138 | 6.4 | 9.7 | 0.00 | 0.00 | 0.00 | 87 | 1016.8 |
| 20260906144648 | 26 | 122 | 6.4 | 9.7 | 0.00 | 0.00 | 0.00 | 86 | 1016.9 |
| 20260906144143 | 26 | 108 | 3.2 | 6.4 | 0.00 | 0.00 | 0.00 | 87 | 1016.9 |
| 20260906143643 | 26 | 127 | 6.4 | 9.7 | 0.00 | 0.00 | 0.00 | 87 | 1017.0 |
| 20260906143140 | 26 | 160 | 9.7 | 16.1 | 0.00 | 0.00 | 0.00 | 88 | 1016.8 |
| 20260906142639 | 26 | 176 | 8.0 | 12.9 | 0.00 | 0.00 | 0.00 | 88 | 1016.9 |
| 20260906142135 | 26 | 95 | 1.6 | 4.8 | 0.00 | 0.00 | 0.00 | 88 | 1016.9 |
| 20260906141633 | 26 | 129 | 12.9 | 12.9 | 0.00 | 0.00 | 0.00 | 88 | 1017.0 |
| 20260906141129 | 26 | 126 | 6.4 | 12.9 | 0.00 | 0.00 | 0.00 | 89 | 1017.0 |
| 20260906140628 | 26 | 134 | 6.4 | 12.9 | 0.00 | 0.00 | 0.00 | 89 | 1017.2 |
| 20260906140123 | 26 | 138 | 9.7 | 9.7 | 0.00 | 0.00 | 0.00 | 88 | 1017.1 |
| 20260906135620 | 26 | 125 | 4.8 | 6.4 | 0.00 | 0.00 | 0.00 | 89 | 1017.1 |
| 20260906135116 | 26 | 105 | 1.6 | 6.4 | 0.00 | 0.00 | 0.00 | 89 | 1017.2 |
| 20260906134612 | 26 | 132 | 8.0 | 6.4 | 0.00 | 0.00 | 0.00 | 90 | 1017.3 |
| 20260906134107 | 25 | 95 | 3.2 | 3.2 | 0.00 | 0.00 | 0.00 | 90 | 1017.2 |
| 20260906133602 | 25 | 137 | 6.4 | 12.9 | 0.00 | 0.00 | 0.00 | 90 | 1017.3 |
| 20260906133057 | 25 | 152 | 6.4 | 6.4 | 0.00 | 0.00 | 0.00 | 91 | 1017.3 |
| 20260906132552 | 25 | 117 | 1.6 | 9.7 | 0.00 | 0.00 | 0.00 | 92 | 1017.5 |
| 20260906132048 | 25 | 143 | 6.4 | 6.4 | 0.00 | 0.00 | 0.00 | 93 | 1017.4 |
| 20260906131543 | 25 | 129 | 3.2 | 4.8 | 0.00 | 0.00 | 0.00 | 93 | 1017.4 |
| 20260906131038 | 25 | 124 | 3.2 | 9.7 | 0.00 | 0.00 | 0.00 | 93 | 1017.0 |
| 20260906130538 | 25 | 142 | 1.6 | 1.6 | 0.00 | 0.00 | 0.00 | 94 | 1017.4 |
| 20260906130033 | 24 | 146 | 1.6 | 6.4 | 0.00 | 0.00 | 0.00 | 94 | 1017.0 |
| 20260906125531 | 24 | 127 | 0.0 | 1.6 | 0.00 | 0.00 | 0.00 | 95 | 1016.9 |
| 20260906125031 | 24 | 127 | 3.2 | 3.2 | 0.00 | 0.00 | 0.00 | 95 | 1017.0 |
| 20260906124526 | 23 | 128 | 3.2 | 3.2 | 0.00 | 0.00 | 0.00 | 95 | 1016.9 |
| 20260906124021 | 23 | 128 | 1.6 | 3.2 | 0.00 | 0.00 | 0.00 | 96 | 1017.0 |
| 20260906123520 | 23 | 130 | 1.6 | 4.8 | 0.00 | 0.00 | 0.00 | 96 | 1016.7 |
| 20260906123016 | 23 | 132 | 1.6 | 4.8 | 0.00 | 0.00 | 0.00 | 96 | 1016.8 |
| 20260906122515 | 23 | 124 | 3.2 | 3.2 | 0.00 | 0.00 | 0.00 | 96 | 1016.7 |
| 20260906122011 | 23 | 124 | 0.0 | 1.6 | 0.00 | 0.00 | 0.00 | 96 | 1016.9 |
| 20260906121507 | 23 | 124 | 1.6 | 3.2 | 0.00 | 0.00 | 0.00 | 96 | 1016.8 |
| 20260906121003 | 23 | 124 | 0.0 | 0.0 | 0.00 | 0.00 | 0.00 | 96 | 1016.7 |
| 20260906120458 | 23 | 124 | 0.0 | 0.0 | 0.00 | 0.00 | 0.00 | 96 | 1016.6 |
| 20260906115954 | 23 | 124 | 0.0 | 0.0 | 0.00 | 0.00 | 0.00 | 96 | 1016.4 |
| 20260906115450 | 23 | 124 | 0.0 | 0.0 | 0.00 | 0.00 | 0.00 | 96 | 1016.3 |
| 20260906114950 | 23 | 124 | 0.0 | 0.0 | 0.00 | 0.00 | 0.00 | 96 | 1016.3 |
| 20260906114444 | 23 | 124 | 0.0 | 0.0 | 0.00 | 0.00 | 0.00 | 96 | 1016.2 |
| 20260906113941 | 23 | 124 | 1.6 | 3.2 | 0.00 | 0.00 | 0.00 | 96 | 1016.2 |
| 20260906113439 | 23 | 126 | 0.0 | 0.0 | 0.00 | 0.00 | 0.00 | 96 | 1016.4 |
| 20260906112935 | 23 | 127 | 0.0 | 3.2 | 0.00 | 0.00 | 0.00 | 96 | 1016.3 |
| 20260906112430 | 23 | 78 | 3.2 | 3.2 | 0.00 | 0.00 | 0.00 | 96 | 1016.2 |
| 20260906111926 | 23 | 77 | 1.6 | 1.6 | 0.00 | 0.00 | 0.00 | 96 | 1016.5 |
| 20260906111425 | 23 | 77 | 0.0 | 1.6 | 0.00 | 0.00 | 0.00 | 96 | 1016.3 |
| 20260906110920 | 23 | 77 | 0.0 | 0.0 | 0.00 | 0.00 | 0.00 | 96 | 1016.1 |
| 20260906110415 | 23 | 77 | 0.0 | 0.0 | 0.00 | 0.00 | 0.00 | 96 | 1016.1 |
| 20260906105915 | 23 | 77 | 0.0 | 1.6 | 0.00 | 0.00 | 0.00 | 96 | 1016.0 |
| 20260906105410 | 23 | 77 | 1.6 | 1.6 | 0.00 | 0.00 | 0.00 | 96 | 1016.2 |
| 20260906104906 | 23 | 77 | 0.0 | 0.0 | 0.00 | 0.00 | 0.00 | 96 | 1016.2 |
| 20260906104404 | 23 | 77 | 0.0 | 0.0 | 0.00 | 0.00 | 0.00 | 96 | 1016.1 |
| 20260906103903 | 23 | 77 | 0.0 | 0.0 | 0.00 | 0.00 | 0.00 | 96 | 1016.3 |
| 20260906103402 | 23 | 77 | 0.0 | 0.0 | 0.00 | 0.00 | 0.00 | 96 | 1016.2 |
| 20260906102858 | 23 | 77 | 0.0 | 0.0 | 0.00 | 0.00 | 0.00 | 96 | 1016.2 |
| 20260906102357 | 23 | 77 | 1.6 | 1.6 | 0.00 | 0.00 | 0.00 | 96 | 1016.2 |
| 20260906101852 | 23 | 77 | 0.0 | 1.6 | 0.00 | 0.00 | 0.00 | 96 | 1015.9 |
| 20260906101347 | 23 | 77 | 0.0 | 0.0 | 0.00 | 0.00 | 0.00 | 96 | 1015.8 |
| 20260906100843 | 23 | 77 | 0.0 | 0.0 | 0.00 | 0.00 | 0.00 | 96 | 1015.9 |
| 20260906100341 | 23 | 77 | 0.0 | 0.0 | 0.00 | 0.00 | 0.00 | 95 | 1015.6 |
| 20260906095837 | 23 | 77 | 0.0 | 0.0 | 0.00 | 0.00 | 0.00 | 95 | 1015.6 |
| 20260906095332 | 23 | 77 | 0.0 | 0.0 | 0.00 | 0.00 | 0.00 | 95 | 1015.7 |
| 20260906094832 | 23 | 77 | 0.0 | 1.6 | 0.00 | 0.00 | 0.00 | 95 | 1015.8 |
| 20260906094326 | 23 | 78 | 0.0 | 0.0 | 0.00 | 0.00 | 0.00 | 95 | 1015.7 |
| 20260906093823 | 23 | 78 | 0.0 | 0.0 | 0.00 | 0.00 | 0.00 | 95 | 1015.9 |
| 20260906093319 | 23 | 78 | 0.0 | 0.0 | 0.00 | 0.00 | 0.00 | 95 | 1015.8 |
| 20260906092814 | 23 | 78 | 0.0 | 0.0 | 0.00 | 0.00 | 0.00 | 95 | 1016.1 |
| 20260906092313 | 23 | 78 | 0.0 | 0.0 | 0.00 | 0.00 | 0.00 | 95 | 1016.0 |
| 20260906091809 | 23 | 78 | 0.0 | 0.0 | 0.00 | 0.00 | 0.00 | 95 | 1015.9 |
| 20260906091305 | 24 | 78 | 0.0 | 0.0 | 0.00 | 0.00 | 0.00 | 95 | 1015.9 |
| 20260906090802 | 24 | 78 | 0.0 | 0.0 | 0.00 | 0.00 | 0.00 | 95 | 1016.1 |
| 20260906090300 | 24 | 78 | 0.0 | 0.0 | 0.00 | 0.00 | 0.00 | 95 | 1015.9 |
| 20260906085801 | 23 | 78 | 0.0 | 0.0 | 0.00 | 0.00 | 0.00 | 94 | 1015.9 |
| 20260906085259 | 24 | 78 | 0.0 | 0.0 | 0.00 | 0.00 | 0.00 | 94 | 1015.9 |
| 20260906084755 | 24 | 78 | 0.0 | 0.0 | 0.00 | 0.00 | 0.00 | 94 | 1016.0 |
| 20260906084254 | 24 | 78 | 0.0 | 0.0 | 0.00 | 0.00 | 0.00 | 94 | 1015.9 |
| 20260906083749 | 24 | 78 | 0.0 | 0.0 | 0.00 | 0.00 | 0.00 | 93 | 1015.8 |
| 20260906083245 | 24 | 78 | 0.0 | 0.0 | 0.00 | 0.00 | 0.00 | 93 | 1015.8 |
| 20260906082739 | 25 | 78 | 0.0 | 0.0 | 0.00 | 0.00 | 0.00 | 92 | 1015.7 |
| 20260906082234 | 25 | 78 | 0.0 | 0.0 | 0.00 | 0.00 | 0.00 | 92 | 1016.0 |
| 20260906081730 | 25 | 78 | 1.6 | 1.6 | 0.00 | 0.00 | 0.00 | 93 | 1015.7 |
| 20260906081225 | 25 | 78 | 3.2 | 3.2 | 0.00 | 0.00 | 0.00 | 93 | 1015.7 |
| 20260906080722 | 24 | 79 | 1.6 | 1.6 | 0.00 | 0.00 | 0.00 | 93 | 1015.5 |
| 20260906080218 | 25 | 79 | 0.0 | 0.0 | 0.00 | 0.00 | 0.00 | 93 | 1015.5 |
| 20260906075718 | 25 | 79 | 0.0 | 1.6 | 0.00 | 0.00 | 0.00 | 93 | 1015.3 |
| 20260906075217 | 25 | 79 | 1.6 | 1.6 | 0.00 | 0.00 | 0.00 | 93 | 1015.2 |
| 20260906074713 | 25 | 79 | 0.0 | 1.6 | 0.00 | 0.00 | 0.00 | 93 | 1015.2 |
| 20260906074212 | 24 | 78 | 1.6 | 1.6 | 0.00 | 0.00 | 0.00 | 94 | 1015.6 |
| 20260906073707 | 24 | 79 | 0.0 | 0.0 | 0.00 | 0.00 | 0.00 | 93 | 1015.5 |
| 20260906073202 | 24 | 79 | 0.0 | 0.0 | 0.00 | 0.00 | 0.00 | 93 | 1015.5 |
| 20260906072658 | 25 | 79 | 0.0 | 0.0 | 0.00 | 0.00 | 0.00 | 93 | 1015.5 |
| 20260906072153 | 25 | 79 | 0.0 | 0.0 | 0.00 | 0.00 | 0.00 | 93 | 1015.6 |
| 20260906071649 | 25 | 79 | 0.0 | 1.6 | 0.00 | 0.00 | 0.00 | 93 | 1015.9 |
| 20260906071149 | 25 | 79 | 0.0 | 1.6 | 0.00 | 0.00 | 0.00 | 93 | 1015.7 |
| 20260906070646 | 25 | 79 | 0.0 | 0.0 | 0.00 | 0.00 | 0.00 | 92 | 1015.8 |
| 20260906070141 | 25 | 79 | 0.0 | 0.0 | 0.00 | 0.00 | 0.00 | 92 | 1015.9 |
| 20260906065641 | 25 | 79 | 0.0 | 0.0 | 0.00 | 0.00 | 0.00 | 92 | 1015.8 |
| 20260906065136 | 25 | 79 | 0.0 | 1.6 | 0.00 | 0.00 | 0.00 | 92 | 1015.7 |
| 20260906064632 | 25 | 79 | 0.0 | 3.2 | 0.00 | 0.00 | 0.00 | 92 | 1015.9 |
| 20260906064127 | 25 | 80 | 0.0 | 3.2 | 0.00 | 0.00 | 0.00 | 92 | 1015.8 |
| 20260906063622 | 25 | 117 | 0.0 | 0.0 | 0.00 | 0.00 | 0.00 | 92 | 1015.8 |
| 20260906063118 | 25 | 117 | 0.0 | 0.0 | 0.00 | 0.00 | 0.00 | 92 | 1015.7 |
| 20260906062613 | 25 | 117 | 0.0 | 1.6 | 0.00 | 0.00 | 0.00 | 92 | 1015.8 |
| 20260906062112 | 25 | 128 | 0.0 | 1.6 | 0.00 | 0.00 | 0.00 | 91 | 1015.7 |
| 20260906061608 | 25 | 128 | 0.0 | 1.6 | 0.00 | 0.00 | 0.00 | 91 | 1015.8 |
| 20260906061108 | 25 | 128 | 0.0 | 0.0 | 0.00 | 0.00 | 0.00 | 90 | 1015.9 |
| 20260906060605 | 25 | 128 | 0.0 | 0.0 | 0.00 | 0.00 | 0.00 | 90 | 1015.8 |
| 20260906055557 | 25 | 128 | 1.6 | 4.8 | 0.00 | 0.00 | 0.00 | 90 | 1015.7 |
| 20260906055052 | 25 | 127 | 1.6 | 1.6 | 0.00 | 0.00 | 0.00 | 89 | 1015.7 |
| 20260906054552 | 25 | 125 | 0.0 | 0.0 | 0.00 | 0.00 | 0.00 | 89 | 1016.0 |
| 20260906054048 | 26 | 125 | 0.0 | 0.0 | 0.00 | 0.00 | 0.00 | 88 | 1015.9 |
| 20260906053544 | 26 | 125 | 0.0 | 0.0 | 0.00 | 0.00 | 0.00 | 87 | 1015.9 |
| 20260906053039 | 26 | 125 | 1.6 | 3.2 | 0.00 | 0.00 | 0.00 | 86 | 1015.8 |
| 20260906052535 | 26 | 124 | 1.6 | 1.6 | 0.00 | 0.00 | 0.00 | 86 | 1015.8 |
| 20260906052032 | 26 | 138 | 8.0 | 9.7 | 0.00 | 0.00 | 0.00 | 86 | 1015.8 |
| 20260906051527 | 26 | 83 | 1.6 | 3.2 | 0.00 | 0.00 | 0.00 | 86 | 1015.8 |
| 20260906051022 | 26 | 5 | 1.6 | 1.6 | 0.00 | 0.00 | 0.00 | 86 | 1015.8 |
| 20260906050517 | 26 | 350 | 1.6 | 1.6 | 0.00 | 0.00 | 0.00 | 86 | 1015.9 |
| 20260906050012 | 26 | 98 | 0.0 | 1.6 | 0.00 | 0.00 | 0.00 | 86 | 1015.6 |
| 20260906045510 | 26 | 98 | 1.6 | 1.6 | 0.00 | 0.00 | 0.00 | 86 | 1015.5 |
| 20260906045006 | 26 | 98 | 0.0 | 1.6 | 0.00 | 0.00 | 0.00 | 86 | 1015.6 |
| 20260906044501 | 26 | 131 | 0.0 | 4.8 | 0.00 | 0.00 | 0.00 | 86 | 1015.6 |
| 20260906043957 | 26 | 113 | 4.8 | 11.3 | 0.00 | 0.00 | 0.00 | 86 | 1015.5 |
| 20260906043453 | 26 | 125 | 3.2 | 6.4 | 0.00 | 0.00 | 0.00 | 86 | 1016.0 |
| 20260906042948 | 26 | 124 | 1.6 | 3.2 | 0.00 | 0.00 | 0.00 | 87 | 1015.9 |
| 20260906042448 | 26 | 62 | 1.6 | 3.2 | 0.00 | 0.00 | 0.00 | 87 | 1016.1 |
| 20260906041947 | 26 | 112 | 0.0 | 3.2 | 0.00 | 0.00 | 0.00 | 87 | 1016.0 |
| 20260906041444 | 26 | 132 | 1.6 | 3.2 | 0.00 | 0.00 | 0.00 | 87 | 1016.2 |
| 20260906040943 | 26 | 118 | 1.6 | 4.8 | 0.00 | 0.00 | 0.00 | 88 | 1016.1 |
| 20260906040438 | 26 | 4 | 0.0 | 1.6 | 0.00 | 0.00 | 0.00 | 89 | 1016.1 |
| 20260906035934 | 26 | 4 | 0.0 | 0.0 | 0.00 | 0.00 | 0.00 | 88 | 1016.3 |
| 20260906035429 | 26 | 4 | 0.0 | 0.0 | 0.00 | 0.00 | 0.00 | 88 | 1016.1 |
| 20260906034925 | 26 | 4 | 0.0 | 0.0 | 0.00 | 0.00 | 0.00 | 88 | 1016.1 |
| 20260906034425 | 26 | 4 | 0.0 | 1.6 | 0.00 | 0.00 | 0.00 | 88 | 1016.2 |
| 20260906033920 | 26 | 4 | 0.0 | 0.0 | 0.00 | 0.00 | 0.00 | 88 | 1015.8 |
| 20260906033420 | 26 | 4 | 0.0 | 1.6 | 0.00 | 0.00 | 0.00 | 88 | 1015.9 |
| 20260906032916 | 26 | 4 | 1.6 | 1.6 | 0.00 | 0.00 | 0.00 | 88 | 1016.0 |
| 20260906032413 | 26 | 4 | 0.0 | 0.0 | 0.00 | 0.00 | 0.00 | 87 | 1016.0 |
| 20260906031912 | 26 | 4 | 1.6 | 1.6 | 0.00 | 0.00 | 0.00 | 87 | 1015.9 |
| 20260906031409 | 26 | 4 | 0.0 | 1.6 | 0.00 | 0.00 | 0.00 | 86 | 1015.9 |
| 20260906030908 | 26 | 4 | 1.6 | 1.6 | 0.00 | 0.00 | 0.00 | 86 | 1015.8 |
| 20260906030404 | 26 | 4 | 0.0 | 1.6 | 0.00 | 0.00 | 0.00 | 86 | 1015.7 |
| 20260906025858 | 26 | 4 | 0.0 | 1.6 | 0.00 | 0.00 | 0.00 | 85 | 1015.6 |
| 20260906025352 | 26 | 4 | 1.6 | 3.2 | 0.00 | 0.00 | 0.00 | 85 | 1015.6 |
| 20260906024852 | 26 | 358 | 1.6 | 3.2 | 0.00 | 0.00 | 0.00 | 85 | 1015.3 |
| 20260906024351 | 26 | 358 | 1.6 | 1.6 | 0.00 | 0.00 | 0.00 | 84 | 1015.1 |
| 20260906023846 | 26 | 358 | 0.0 | 0.0 | 0.00 | 0.00 | 0.00 | 84 | 1015.3 |
| 20260906023342 | 26 | 358 | 0.0 | 1.6 | 0.00 | 0.00 | 0.00 | 84 | 1015.2 |
| 20260906022837 | 26 | 358 | 1.6 | 1.6 | 0.00 | 0.00 | 0.00 | 83 | 1015.1 |
| 20260906022337 | 26 | 358 | 1.6 | 1.6 | 0.00 | 0.00 | 0.00 | 83 | 1015.1 |
| 20260906021833 | 26 | 358 | 1.6 | 1.6 | 0.00 | 0.00 | 0.00 | 83 | 1015.2 |
| 20260906021332 | 27 | 358 | 0.0 | 1.6 | 0.00 | 0.00 | 0.00 | 83 | 1015.3 |
| 20260906020827 | 27 | 357 | 1.6 | 3.2 | 0.00 | 0.00 | 0.00 | 82 | 1015.1 |
| 20260906020327 | 27 | 13 | 3.2 | 4.8 | 0.00 | 0.00 | 0.00 | 82 | 1014.9 |
| 20260906015822 | 27 | 20 | 0.0 | 0.0 | 0.00 | 0.00 | 0.00 | 82 | 1014.9 |
| 20260906015321 | 27 | 20 | 0.0 | 1.6 | 0.00 | 0.00 | 0.00 | 82 | 1014.7 |
| 20260906014820 | 27 | 20 | 0.0 | 1.6 | 0.00 | 0.00 | 0.00 | 81 | 1014.7 |
| 20260906014316 | 27 | 20 | 1.6 | 1.6 | 0.00 | 0.00 | 0.00 | 81 | 1014.7 |
| 20260906013812 | 27 | 20 | 1.6 | 1.6 | 0.00 | 0.00 | 0.00 | 81 | 1014.6 |
| 20260906013307 | 27 | 20 | 0.0 | 1.6 | 0.00 | 0.00 | 0.00 | 80 | 1014.6 |
| 20260906012802 | 27 | 21 | 0.0 | 1.6 | 0.00 | 0.00 | 0.00 | 80 | 1014.6 |
| 20260906012257 | 27 | 20 | 0.0 | 0.0 | 0.00 | 0.00 | 0.00 | 80 | 1014.4 |
| 20260906011752 | 27 | 20 | 0.0 | 0.0 | 0.00 | 0.00 | 0.00 | 79 | 1014.4 |
| 20260906011252 | 27 | 20 | 0.0 | 0.0 | 0.00 | 0.00 | 0.00 | 79 | 1014.5 |
| 20260906010747 | 27 | 20 | 0.0 | 1.6 | 0.00 | 0.00 | 0.00 | 78 | 1014.4 |
| 20260906010244 | 27 | 20 | 1.6 | 1.6 | 0.00 | 0.00 | 0.00 | 78 | 1014.4 |
| 20260906005738 | 28 | 20 | 0.0 | 0.0 | 0.00 | 0.00 | 0.00 | 78 | 1014.2 |
| 20260906005237 | 28 | 20 | 0.0 | 3.2 | 0.00 | 0.00 | 0.00 | 77 | 1014.1 |
| 20260906004737 | 28 | 21 | 1.6 | 3.2 | 0.00 | 0.00 | 0.00 | 77 | 1014.1 |
| 20260906004232 | 28 | 24 | 1.6 | 1.6 | 0.00 | 0.00 | 0.00 | 78 | 1014.2 |
| 20260906003733 | 28 | 23 | 1.6 | 3.2 | 0.00 | 0.00 | 0.00 | 77 | 1014.3 |
| 20260906003229 | 28 | 30 | 1.6 | 1.6 | 0.00 | 0.00 | 0.00 | 76 | 1014.0 |
| 20260906002728 | 29 | 30 | 0.0 | 3.2 | 0.00 | 0.00 | 0.00 | 74 | 1014.0 |
| 20260906002223 | 30 | 83 | 0.0 | 1.6 | 0.00 | 0.00 | 0.00 | 73 | 1014.3 |
| 20260906001719 | 30 | 49 | 0.0 | 0.0 | 0.00 | 0.00 | 0.00 | 72 | 1014.0 |
| 20260906001219 | 30 | 135 | 0.0 | 3.2 | 0.00 | 0.00 | 0.00 | 71 | 1013.9 |
| 20260906000714 | 30 | 133 | 0.0 | 1.6 | 0.00 | 0.00 | 0.00 | 71 | 1014.0 |
| 20260906000211 | 30 | 133 | 3.2 | 3.2 | 0.00 | 0.00 | 0.00 | 70 | 1013.9 |
| 20260905235709 | 30 | 137 | 4.8 | 6.4 | 0.00 | 0.00 | 0.00 | 69 | 1013.9 |
| 20260905235203 | 30 | 127 | 3.2 | 6.4 | 0.00 | 0.00 | 0.00 | 69 | 1013.6 |
| 20260905234659 | 30 | 129 | 4.8 | 9.7 | 0.00 | 0.00 | 0.00 | 68 | 1014.0 |
| 20260905234154 | 30 | 106 | 1.6 | 14.5 | 0.00 | 0.00 | 0.00 | 69 | 1013.8 |
| 20260905233649 | 31 | 128 | 4.8 | 11.3 | 0.00 | 0.00 | 0.00 | 68 | 1013.8 |
| 20260905233149 | 31 | 129 | 6.4 | 16.1 | 0.00 | 0.00 | 0.00 | 67 | 1013.9 |
| 20260905232644 | 31 | 135 | 11.3 | 14.5 | 0.00 | 0.00 | 0.00 | 67 | 1013.8 |
| 20260905232140 | 31 | 133 | 1.6 | 6.4 | 0.00 | 0.00 | 0.00 | 69 | 1013.9 |
| 20260905231634 | 31 | 130 | 8.0 | 11.3 | 0.00 | 0.00 | 0.00 | 67 | 1013.7 |
| 20260905231131 | 31 | 144 | 8.0 | 9.7 | 0.00 | 0.00 | 0.00 | 66 | 1014.0 |
| 20260905230627 | 31 | 107 | 3.2 | 3.2 | 0.00 | 0.00 | 0.00 | 67 | 1013.8 |
| 20260905230125 | 31 | 134 | 3.2 | 3.2 | 0.00 | 0.00 | 0.00 | 67 | 1013.8 |
| 20260905225624 | 31 | 166 | 6.4 | 6.4 | 0.00 | 0.00 | 0.00 | 67 | 1013.9 |
| 20260905225120 | 31 | 157 | 8.0 | 12.9 | 0.00 | 0.00 | 0.00 | 66 | 1013.9 |
| 20260905224619 | 31 | 159 | 9.7 | 14.5 | 0.00 | 0.00 | 0.00 | 65 | 1013.8 |
| 20260905224118 | 31 | 135 | 4.8 | 11.3 | 0.00 | 0.00 | 0.00 | 66 | 1014.0 |
| 20260905223616 | 31 | 130 | 8.0 | 14.5 | 0.00 | 0.00 | 0.00 | 66 | 1013.6 |
| 20260905223112 | 31 | 145 | 11.3 | 14.5 | 0.00 | 0.00 | 0.00 | 67 | 1013.6 |
| 20260905222612 | 31 | 138 | 11.3 | 14.5 | 0.00 | 0.00 | 0.00 | 66 | 1013.7 |
| 20260905222107 | 30 | 105 | 8.0 | 12.9 | 0.00 | 0.00 | 0.00 | 68 | 1013.9 |
| 20260905221603 | 30 | 107 | 11.3 | 16.1 | 0.00 | 0.00 | 0.00 | 65 | 1013.6 |
| 20260905221059 | 30 | 132 | 9.7 | 17.7 | 0.00 | 0.00 | 0.00 | 66 | 1013.6 |
| 20260905220554 | 30 | 155 | 14.5 | 16.1 | 0.00 | 0.00 | 0.00 | 66 | 1013.5 |
| 20260905220050 | 30 | 152 | 16.1 | 22.5 | 0.00 | 0.00 | 0.00 | 65 | 1013.6 |
| 20260905215549 | 30 | 137 | 6.4 | 14.5 | 0.00 | 0.00 | 0.00 | 68 | 1013.5 |
| 20260905215046 | 30 | 120 | 3.2 | 14.5 | 0.00 | 0.00 | 0.00 | 67 | 1013.5 |
| 20260905214543 | 30 | 140 | 6.4 | 12.9 | 0.00 | 0.00 | 0.00 | 67 | 1013.4 |
| 20260905214043 | 30 | 137 | 14.5 | 17.7 | 0.00 | 0.00 | 0.00 | 66 | 1013.5 |
| 20260905213538 | 30 | 137 | 9.7 | 11.3 | 0.00 | 0.00 | 0.00 | 66 | 1013.6 |
| 20260905213033 | 30 | 144 | 11.3 | 16.1 | 0.00 | 0.00 | 0.00 | 67 | 1013.7 |
| 20260905212528 | 30 | 135 | 14.5 | 17.7 | 0.00 | 0.00 | 0.00 | 65 | 1013.7 |
| 20260905212027 | 30 | 132 | 9.7 | 16.1 | 0.00 | 0.00 | 0.00 | 66 | 1013.9 |
| 20260905211523 | 30 | 128 | 14.5 | 20.9 | 0.00 | 0.00 | 0.00 | 65 | 1013.7 |
| 20260905211019 | 30 | 140 | 14.5 | 22.5 | 0.00 | 0.00 | 0.00 | 64 | 1013.9 |
| 20260905210514 | 30 | 98 | 9.7 | 12.9 | 0.00 | 0.00 | 0.00 | 65 | 1013.9 |
| 20260905210014 | 30 | 131 | 20.9 | 24.1 | 0.00 | 0.00 | 0.00 | 63 | 1013.7 |
| 20260905205514 | 30 | 134 | 12.9 | 16.1 | 0.00 | 0.00 | 0.00 | 64 | 1013.7 |
| 20260905205013 | 30 | 143 | 12.9 | 17.7 | 0.00 | 0.00 | 0.00 | 63 | 1013.8 |
| 20260905204508 | 30 | 148 | 3.2 | 6.4 | 0.00 | 0.00 | 0.00 | 61 | 1013.9 |
| 20260905204008 | 29 | 128 | 14.5 | 20.9 | 0.00 | 0.00 | 0.00 | 63 | 1013.7 |
| 20260905203503 | 28 | 150 | 16.1 | 20.9 | 0.00 | 0.00 | 0.00 | 64 | 1013.8 |
| 20260905202959 | 28 | 102 | 14.5 | 17.7 | 0.00 | 0.00 | 0.00 | 62 | 1013.7 |
| 20260905202454 | 28 | 135 | 14.5 | 16.1 | 0.00 | 0.00 | 0.00 | 60 | 1014.1 |
| 20260905201949 | 29 | 136 | 8.0 | 12.9 | 0.00 | 0.00 | 0.00 | 61 | 1014.1 |
| 20260905201444 | 29 | 114 | 4.8 | 11.3 | 0.00 | 0.00 | 0.00 | 62 | 1014.4 |
| 20260905200944 | 29 | 135 | 8.0 | 11.3 | 0.00 | 0.00 | 0.00 | 60 | 1014.5 |
| 20260905200440 | 30 | 130 | 14.5 | 22.5 | 0.00 | 0.00 | 0.00 | 56 | 1014.8 |
| 20260905195938 | 29 | 115 | 0.0 | 4.8 | 0.00 | 0.00 | 0.00 | 66 | 1014.8 |
| 20260905195433 | 29 | 137 | 8.0 | 11.3 | 0.00 | 0.00 | 0.00 | 58 | 1014.8 |
| 20260905194929 | 29 | 127 | 8.0 | 12.9 | 0.00 | 0.00 | 0.00 | 60 | 1014.7 |
| 20260905194428 | 30 | 159 | 8.0 | 17.7 | 0.00 | 0.00 | 0.00 | 59 | 1014.6 |
| 20260905193928 | 30 | 126 | 19.3 | 22.5 | 0.00 | 0.00 | 0.00 | 56 | 1014.9 |
| 20260905193423 | 30 | 147 | 9.7 | 25.7 | 0.00 | 0.00 | 0.00 | 56 | 1014.9 |
| 20260905192919 | 30 | 152 | 12.9 | 20.9 | 0.00 | 0.00 | 0.00 | 57 | 1015.1 |
| 20260905192414 | 30 | 94 | 4.8 | 9.7 | 0.00 | 0.00 | 0.00 | 55 | 1015.6 |
| 20260905191914 | 30 | 143 | 3.2 | 11.3 | 0.00 | 0.00 | 0.00 | 59 | 1015.6 |
| 20260905191413 | 30 | 108 | 3.2 | 12.9 | 0.00 | 0.00 | 0.00 | 57 | 1015.8 |
| 20260905190908 | 30 | 141 | 9.7 | 12.9 | 0.00 | 0.00 | 0.00 | 57 | 1015.7 |
| 20260905190406 | 30 | 121 | 1.6 | 6.4 | 0.00 | 0.00 | 0.00 | 57 | 1016.0 |
| 20260905185904 | 30 | 110 | 1.6 | 3.2 | 0.00 | 0.00 | 0.00 | 56 | 1016.2 |
| 20260905185400 | 30 | 74 | 0.0 | 1.6 | 0.00 | 0.00 | 0.00 | 60 | 1016.3 |
| 20260905184859 | 30 | 74 | 0.0 | 0.0 | 0.00 | 0.00 | 0.00 | 62 | 1016.5 |
| 20260905184359 | 30 | 73 | 0.0 | 0.0 | 0.00 | 0.00 | 0.00 | 59 | 1016.6 |
| 20260905183857 | 30 | 68 | 0.0 | 1.6 | 0.00 | 0.00 | 0.00 | 61 | 1016.7 |
| 20260905183352 | 30 | 53 | 1.6 | 1.6 | 0.00 | 0.00 | 0.00 | 60 | 1016.7 |
| 20260905182847 | 29 | 69 | 1.6 | 1.6 | 0.00 | 0.00 | 0.00 | 62 | 1016.7 |
| 20260905182347 | 28 | 69 | 0.0 | 1.6 | 0.00 | 0.00 | 0.00 | 67 | 1016.9 |
| 20260905181843 | 28 | 69 | 0.0 | 0.0 | 0.00 | 0.00 | 0.00 | 64 | 1016.9 |